Time;durP1;ratioP1;P1;durP2;ratioP2;P2;SDS_P1;SDS_P2;PMS_P1;PMS_P2;Temp;Humidity;BMP_temperature;BMP_pressure;BME280_temperature;BME280_humidity;BME280_pressure;Samples;Min_cycle;Max_cycle;Signal;HPM_P1;HPM_P2
2022/09/20 00:01:16;;;;;;;1.00;1.00;;;9.30;99.90;;;;;;5036885;28;20172;-88
2022/09/20 00:03:45;;;;;;;0.87;0.83;;;8.30;99.90;;;;;;5054493;28;20190;-88
2022/09/20 00:06:13;;;;;;;1.33;1.17;;;8.30;99.90;;;;;;5054354;28;20172;-88
2022/09/20 00:08:39;;;;;;;1.47;1.10;;;10.00;99.90;;;;;;5062279;28;20203;-88
2022/09/20 00:11:10;;;;;;;2.10;1.37;;;8.40;99.90;;;;;;5076101;28;20205;-88
2022/09/20 00:13:37;;;;;;;0.77;0.67;;;8.40;99.90;;;;;;5075890;28;20152;-88
2022/09/20 00:16:09;;;;;;;1.53;1.43;;;9.70;99.90;;;;;;5077132;28;20175;-88
2022/09/20 00:18:35;;;;;;;1.20;1.00;;;9.10;99.90;;;;;;5078949;28;20224;-88
2022/09/20 00:21:01;;;;;;;1.20;1.13;;;8.50;99.90;;;;;;5079526;28;20184;-89
2022/09/20 00:23:28;;;;;;;0.73;0.73;;;8.80;99.90;;;;;;5079813;28;20171;-89
2022/09/20 00:25:56;;;;;;;1.70;1.20;;;8.50;99.90;;;;;;5062063;28;20191;-88
2022/09/20 00:28:22;;;;;;;0.97;0.83;;;9.30;99.90;;;;;;5057089;28;20266;-87
2022/09/20 00:30:48;;;;;;;1.27;1.20;;;9.80;99.90;;;;;;5074562;28;20176;-88
2022/09/20 00:33:14;;;;;;;0.63;0.60;;;8.50;99.90;;;;;;5057862;28;20187;-88
2022/09/20 00:35:45;;;;;;;1.27;1.17;;;8.50;99.90;;;;;;5061555;28;20180;-87
2022/09/20 00:38:12;;;;;;;0.83;0.83;;;8.50;99.90;;;;;;5061618;28;20188;-87
2022/09/20 00:40:39;;;;;;;0.97;0.97;;;8.70;99.90;;;;;;5072437;28;20196;-87
2022/09/20 00:43:05;;;;;;;0.73;0.73;;;8.50;99.90;;;;;;5053855;28;20208;-87
2022/09/20 00:45:31;;;;;;;1.30;1.17;;;9.70;99.90;;;;;;5053859;28;20246;-87
2022/09/20 00:48:06;;;;;;;1.43;1.20;;;8.60;99.90;;;;;;5035790;28;20545;-87
2022/09/20 00:50:39;;;;;;;1.60;1.23;;;8.60;99.90;;;;;;5035974;28;20552;-88
2022/09/20 00:53:25;;;;;;;0.77;0.77;;;8.60;99.90;;;;;;5053590;28;20172;-86
2022/09/20 00:55:58;;;;;;;1.00;1.00;;;8.50;99.90;;;;;;5035658;28;20180;-87
2022/09/20 00:58:26;;;;;;;1.87;1.70;;;9.10;99.90;;;;;;5053875;28;20198;-87
2022/09/20 01:00:54;;;;;;;1.27;1.13;;;8.60;99.90;;;;;;5053059;28;20207;-87
2022/09/20 01:03:21;;;;;;;1.20;1.03;;;9.20;99.90;;;;;;5053322;28;20548;-87
2022/09/20 01:05:49;;;;;;;2.93;1.23;;;8.60;99.90;;;;;;5052938;28;20180;-86
2022/09/20 01:08:16;;;;;;;0.80;0.80;;;10.00;99.90;;;;;;5053226;28;20218;-87
2022/09/20 01:10:41;;;;;;;2.67;1.57;;;8.70;99.90;;;;;;5052874;28;20187;-87
2022/09/20 01:13:07;;;;;;;1.00;1.00;;;8.70;99.90;;;;;;5035847;28;20188;-87
2022/09/20 01:15:35;;;;;;;0.80;0.80;;;8.70;99.90;;;;;;5053384;28;20172;-87
2022/09/20 01:18:03;;;;;;;0.90;0.90;;;8.70;99.90;;;;;;5035344;28;20184;-87
2022/09/20 01:20:32;;;;;;;1.40;1.20;;;8.70;99.90;;;;;;5053676;28;20625;-88
2022/09/20 01:23:16;;;;;;;1.00;0.90;;;9.30;99.90;;;;;;5054743;28;20518;-87
2022/09/20 01:26:18;;;;;;;0.73;0.73;;;8.70;99.90;;;;;;5052891;28;20176;-86
2022/09/20 01:28:46;;;;;;;1.00;1.00;;;8.70;99.90;;;;;;5034768;28;20235;-87
2022/09/20 01:31:25;;;;;;;1.23;1.20;;;8.70;99.90;;;;;;5053119;28;20184;-87
2022/09/20 01:33:56;;;;;;;0.80;0.80;;;8.70;99.90;;;;;;5034827;28;20175;-87
2022/09/20 01:36:41;;;;;;;1.10;1.00;;;8.70;99.90;;;;;;5035188;28;20186;-88
2022/09/20 01:39:23;;;;;;;1.97;1.03;;;8.70;99.90;;;;;;5053271;28;20186;-88
2022/09/20 01:41:53;;;;;;;1.33;1.23;;;8.80;99.90;;;;;;5052651;28;20179;-88
2022/09/20 01:44:34;;;;;;;1.43;0.70;;;8.70;99.90;;;;;;5052918;28;20180;-89
2022/09/20 01:47:10;;;;;;;6.47;1.67;;;8.80;99.90;;;;;;5061903;28;20187;-88
2022/09/20 01:49:59;;;;;;;2.00;1.77;;;8.80;99.90;;;;;;5073421;28;20210;-87
2022/09/20 01:52:33;;;;;;;1.17;1.17;;;8.80;99.90;;;;;;5077529;28;20175;-88
2022/09/20 01:55:08;;;;;;;1.90;1.07;;;8.90;99.90;;;;;;5076436;28;20704;-88
2022/09/20 01:57:33;;;;;;;0.60;0.60;;;8.80;99.90;;;;;;5076881;28;20269;-88
2022/09/20 02:00:18;;;;;;;0.90;0.90;;;8.80;99.90;;;;;;5058792;28;20577;-88
2022/09/20 02:03:01;;;;;;;3.13;2.30;;;8.90;99.90;;;;;;5076454;28;20225;-88
2022/09/20 02:06:00;;;;;;;1.53;1.00;;;8.80;99.90;;;;;;5058749;28;20224;-89
2022/09/20 02:08:32;;;;;;;1.60;1.50;;;8.80;99.90;;;;;;5058975;28;20242;-89
2022/09/20 02:10:57;;;;;;;1.43;1.33;;;8.80;99.90;;;;;;5058866;28;20190;-89
2022/09/20 02:13:40;;;;;;;2.37;1.60;;;8.90;99.90;;;;;;5058933;28;20179;-89
2022/09/20 02:16:35;;;;;;;1.30;1.20;;;9.80;99.90;;;;;;5076380;28;20175;-89
2022/09/20 02:19:24;;;;;;;1.43;1.33;;;8.90;99.90;;;;;;5058464;28;20525;-89
2022/09/20 02:22:17;;;;;;;1.47;1.27;;;8.90;99.90;;;;;;5072558;28;20258;-89
2022/09/20 02:25:16;;;;;;;1.20;1.10;;;8.90;99.90;;;;;;5043342;28;20191;-89
2022/09/20 02:28:24;;;;;;;0.93;0.93;;;8.90;99.90;;;;;;5047900;28;20272;-89
2022/09/20 02:31:13;;;;;;;0.40;0.40;;;8.90;99.90;;;;;;5041214;28;20190;-89
2022/09/20 02:34:21;;;;;;;1.73;1.30;;;8.90;99.90;;;;;;5057463;28;20194;-89
2022/09/20 02:37:17;;;;;;;1.27;1.23;;;8.90;99.90;;;;;;5076055;28;20213;-88
2022/09/20 02:39:56;;;;;;;4.23;1.70;;;9.00;99.90;;;;;;5076146;28;20262;-89
2022/09/20 02:42:38;;;;;;;2.00;1.50;;;8.90;99.90;;;;;;5076206;28;20647;-90
2022/09/20 02:45:17;;;;;;;1.23;1.17;;;9.00;99.90;;;;;;5075604;28;20531;-90
2022/09/20 02:47:43;;;;;;;1.43;1.33;;;9.50;99.90;;;;;;5075967;28;20159;-90
2022/09/20 02:50:24;;;;;;;2.77;2.00;;;9.00;99.90;;;;;;5057574;28;21028;-91
2022/09/20 02:53:09;;;;;;;2.90;1.93;;;9.00;99.90;;;;;;5057667;28;20202;-89
2022/09/20 02:55:53;;;;;;;2.07;1.23;;;9.60;99.90;;;;;;5057966;28;20175;-89
2022/09/20 02:58:25;;;;;;;1.00;1.00;;;9.00;99.90;;;;;;5057785;28;20187;-89
2022/09/20 03:01:01;;;;;;;1.83;1.23;;;9.10;99.90;;;;;;5075146;28;20171;-89
2022/09/20 03:03:54;;;;;;;3.87;2.13;;;9.70;99.90;;;;;;5058293;28;20178;-91
2022/09/20 03:06:37;;;;;;;1.43;1.30;;;9.00;99.90;;;;;;5076569;28;20167;-91
2022/09/20 03:09:05;;;;;;;2.77;2.47;;;9.00;99.90;;;;;;5057270;28;20268;-90
2022/09/20 03:11:38;;;;;;;1.50;1.40;;;9.00;99.90;;;;;;5075514;28;20713;-89
2022/09/20 03:14:25;;;;;;;2.20;1.40;;;9.00;99.90;;;;;;5058305;28;20671;-90
2022/09/20 03:17:21;;;;;;;2.90;2.57;;;9.00;99.90;;;;;;5077371;28;20182;-89
2022/09/20 03:20:02;;;;;;;2.23;1.50;;;9.10;99.90;;;;;;5059154;28;20548;-90
2022/09/20 03:22:47;;;;;;;1.63;1.53;;;9.10;99.90;;;;;;5077179;28;20242;-89
2022/09/20 03:25:29;;;;;;;2.50;2.13;;;9.10;99.90;;;;;;5076207;28;20171;-88
2022/09/20 03:28:00;;;;;;;2.87;2.13;;;9.10;99.90;;;;;;5077196;28;20222;-87
2022/09/20 03:30:57;;;;;;;2.90;2.60;;;9.10;99.90;;;;;;5075896;28;20179;-90
2022/09/20 03:33:27;;;;;;;1.97;1.80;;;9.10;99.90;;;;;;5053744;28;20179;-90
2022/09/20 03:36:15;;;;;;;2.90;2.70;;;9.60;99.90;;;;;;5075046;28;20194;-89
2022/09/20 03:38:40;;;;;;;2.87;2.23;;;9.20;99.90;;;;;;5073609;28;20193;-88
2022/09/20 03:41:24;;;;;;;2.10;2.00;;;9.20;99.90;;;;;;5073262;28;20590;-90
2022/09/20 03:43:55;;;;;;;2.57;2.37;;;9.20;99.90;;;;;;5055167;28;20180;-90
2022/09/20 03:46:21;;;;;;;3.23;2.93;;;10.00;99.90;;;;;;5072667;28;20293;-90
2022/09/20 03:49:09;;;;;;;2.93;2.47;;;9.20;99.90;;;;;;5073962;28;20294;-89
2022/09/20 03:51:51;;;;;;;5.90;4.07;;;9.20;99.90;;;;;;5055242;28;20195;-91
2022/09/20 03:54:44;;;;;;;3.93;2.90;;;9.20;99.90;;;;;;5073457;28;20183;-92
2022/09/20 03:57:38;;;;;;;3.90;3.07;;;9.30;99.90;;;;;;5076059;28;20199;-93
2022/09/20 04:00:32;;;;;;;2.67;2.30;;;9.30;99.90;;;;;;5066813;28;20246;-93
2022/09/20 04:03:21;;;;;;;3.00;2.70;;;9.20;99.90;;;;;;5083167;28;20190;-92
2022/09/20 04:06:18;;;;;;;2.43;2.23;;;9.20;99.90;;;;;;5086126;28;20186;-94
2022/09/20 04:08:59;;;;;;;5.03;4.37;;;9.30;99.90;;;;;;5068834;28;20264;-92
2022/09/20 04:11:50;;;;;;;5.07;2.70;;;9.30;99.90;;;;;;5076254;28;20190;-92
2022/09/20 04:14:26;;;;;;;4.03;2.90;;;9.30;99.90;;;;;;5076108;28;20183;-93
2022/09/20 04:17:19;;;;;;;3.33;2.87;;;9.30;99.90;;;;;;5081852;28;20183;-92
2022/09/20 04:19:56;;;;;;;2.97;2.67;;;9.30;99.90;;;;;;5074123;28;20254;-92
2022/09/20 04:22:24;;;;;;;3.53;3.23;;;9.60;99.90;;;;;;5090843;28;20187;-93
2022/09/20 04:25:04;;;;;;;3.90;2.83;;;9.40;99.90;;;;;;5088835;28;20194;-92
2022/09/20 04:27:52;;;;;;;2.90;2.70;;;9.30;99.90;;;;;;5079899;28;20178;-95
2022/09/20 04:30:21;;;;;;;6.13;3.93;;;9.40;99.90;;;;;;5043069;28;20191;-94
2022/09/20 04:33:19;;;;;;;7.87;5.07;;;9.40;99.90;;;;;;5073195;28;20193;-92
2022/09/20 04:36:28;;;;;;;3.40;2.67;;;9.40;99.90;;;;;;5074430;28;20179;-96
2022/09/20 04:39:27;;;;;;;3.93;3.23;;;9.40;99.90;;;;;;5073403;28;20684;-94
2022/09/20 04:42:41;;;;;;;3.20;2.90;;;9.40;99.90;;;;;;5038781;28;20209;-94
2022/09/20 04:45:22;;;;;;;3.17;2.90;;;9.40;99.90;;;;;;4984015;28;20229;-94
2022/09/20 04:47:51;;;;;;;3.60;2.87;;;9.90;99.90;;;;;;5071927;28;20194;-94
2022/09/20 04:50:35;;;;;;;5.10;2.63;;;9.40;99.90;;;;;;5074018;28;20187;-95
2022/09/20 04:53:28;;;;;;;1.57;1.47;;;9.50;99.90;;;;;;5069686;28;20182;-94
2022/09/20 04:56:37;;;;;;;6.03;3.60;;;9.50;99.90;;;;;;5073698;28;20671;-92
2022/09/20 04:59:09;;;;;;;9.83;3.97;;;9.50;99.90;;;;;;5072691;28;20190;-92
2022/09/20 05:02:02;;;;;;;4.00;3.63;;;10.40;99.90;;;;;;5054418;28;20175;-93
2022/09/20 05:04:46;;;;;;;4.70;3.87;;;9.50;99.90;;;;;;5076817;28;20174;-92
2022/09/20 05:07:15;;;;;;;6.43;4.20;;;9.50;99.90;;;;;;5074370;28;20171;-92
2022/09/20 05:10:07;;;;;;;4.13;3.67;;;9.50;99.90;;;;;;5073799;28;20751;-95
2022/09/20 05:12:34;;;;;;;4.20;3.40;;;9.50;99.90;;;;;;5074523;28;20176;-91
2022/09/20 05:15:42;;;;;;;5.10;3.57;;;9.60;99.90;;;;;;5075289;28;20182;-92
2022/09/20 05:18:32;;;;;;;4.90;3.80;;;9.60;99.90;;;;;;5073450;28;20171;-88
2022/09/20 05:21:48;;;;;;;3.53;3.07;;;9.60;99.90;;;;;;5073627;28;20178;-93
2022/09/20 05:24:45;;;;;;;5.53;3.27;;;9.60;99.90;;;;;;5031244;28;20194;-92
2022/09/20 05:27:19;;;;;;;6.27;3.77;;;9.60;99.90;;;;;;5073301;28;20175;-89
2022/09/20 05:30:09;;;;;;;4.07;3.33;;;11.20;99.90;;;;;;5055552;28;20273;-90
2022/09/20 05:33:12;;;;;;;4.10;3.43;;;9.70;99.90;;;;;;5074315;28;20164;-94
2022/09/20 05:36:08;;;;;;;7.37;4.40;;;9.70;99.90;;;;;;5069904;28;20257;-92
2022/09/20 05:39:00;;;;;;;9.90;4.03;;;9.80;99.90;;;;;;5073432;28;20183;-91
2022/09/20 05:41:44;;;;;;;4.43;3.63;;;9.80;99.90;;;;;;5055885;28;20252;-91
2022/09/20 05:44:18;;;;;;;6.43;3.27;;;9.80;99.90;;;;;;5074449;28;20194;-89
2022/09/20 05:47:15;;;;;;;7.50;4.70;;;9.80;99.90;;;;;;5077375;28;20167;-89
2022/09/20 05:50:14;;;;;;;3.83;3.43;;;9.90;99.90;;;;;;5049214;28;20227;-90
2022/09/20 05:53:17;;;;;;;3.73;3.17;;;9.90;99.90;;;;;;5060931;28;20183;-91
2022/09/20 05:56:11;;;;;;;4.03;3.20;;;9.90;99.90;;;;;;5047406;28;20295;-90
2022/09/20 05:59:04;;;;;;;6.13;4.60;;;9.90;99.90;;;;;;5063834;28;20175;-91
2022/09/20 06:01:37;;;;;;;6.87;4.67;;;9.90;99.90;;;;;;5064147;28;20183;-88
2022/09/20 06:04:24;;;;;;;3.97;3.57;;;10.00;99.90;;;;;;5062650;28;20183;-91
2022/09/20 06:07:01;;;;;;;5.67;3.50;;;9.90;99.90;;;;;;5059236;28;20186;-92
2022/09/20 06:10:08;;;;;;;4.50;2.87;;;10.00;99.90;;;;;;5039673;28;20214;-91
2022/09/20 06:12:51;;;;;;;4.40;4.00;;;10.10;99.90;;;;;;5064048;28;20207;-92
2022/09/20 06:15:45;;;;;;;7.03;5.03;;;10.10;99.90;;;;;;5054971;28;20187;-89
2022/09/20 06:18:27;;;;;;;7.27;4.73;;;10.10;99.90;;;;;;5097996;28;20171;-90
2022/09/20 06:21:08;;;;;;;6.57;4.33;;;10.10;99.90;;;;;;5097954;28;20239;-90
2022/09/20 06:23:35;;;;;;;3.47;2.80;;;10.20;99.90;;;;;;5095144;28;20182;-89
2022/09/20 06:26:06;;;;;;;4.27;3.07;;;10.20;99.90;;;;;;5082364;28;20235;-89
2022/09/20 06:28:33;;;;;;;6.80;4.93;;;10.20;99.90;;;;;;5089291;28;20248;-88
2022/09/20 06:30:59;;;;;;;6.13;4.43;;;10.40;99.90;;;;;;5080291;28;20156;-90
2022/09/20 06:33:27;;;;;;;6.60;4.03;;;10.20;99.90;;;;;;5063850;28;20222;-89
2022/09/20 06:42:24;;;;;;;5.63;4.27;;;10.30;99.90;;;;;;5082658;28;20204;-89
2022/09/20 06:44:50;;;;;;;4.27;3.30;;;10.30;99.90;;;;;;5055536;28;20174;-92
2022/09/20 06:47:16;;;;;;;4.57;3.72;;;10.30;99.90;;;;;;5094722;28;20192;-91
2022/09/20 06:49:43;;;;;;;9.00;3.67;;;10.40;99.90;;;;;;5056410;28;20786;-93
2022/09/20 06:52:17;;;;;;;4.50;4.10;;;10.40;99.90;;;;;;5039117;28;20187;-92
2022/09/20 06:54:45;;;;;;;2.97;2.73;;;10.40;99.90;;;;;;5055931;28;20206;-93
2022/09/20 06:57:15;;;;;;;4.87;3.33;;;11.00;99.90;;;;;;5056043;28;20172;-91
2022/09/20 06:59:40;;;;;;;4.30;3.47;;;10.40;99.90;;;;;;5055640;28;20287;-91
2022/09/20 07:02:07;;;;;;;6.17;3.90;;;10.40;99.90;;;;;;5039246;28;20275;-95
2022/09/20 07:04:33;;;;;;;4.23;2.97;;;10.50;99.90;;;;;;5055676;28;20650;-89
2022/09/20 07:07:01;;;;;;;4.10;3.42;;;10.40;99.90;;;;;;5058424;28;20180;-91
2022/09/20 07:09:27;;;;;;;5.27;4.53;;;10.80;99.90;;;;;;5075226;28;20233;-92
2022/09/20 07:11:54;;;;;;;4.20;3.43;;;10.50;99.90;;;;;;5075993;28;20715;-92
2022/09/20 07:14:21;;;;;;;5.43;3.60;;;10.50;99.90;;;;;;5058035;28;20693;-91
2022/09/20 07:16:47;;;;;;;3.20;2.80;;;11.70;99.90;;;;;;5059225;28;20179;-91
2022/09/20 07:19:13;;;;;;;3.57;3.03;;;10.60;99.90;;;;;;5058906;28;20231;-90
2022/09/20 07:21:39;;;;;;;4.10;3.70;;;10.70;99.90;;;;;;5075247;28;20272;-91
2022/09/20 07:24:05;;;;;;;5.18;3.35;;;11.20;99.90;;;;;;5057781;28;20187;-92
2022/09/20 07:26:30;;;;;;;4.15;3.42;;;10.70;99.90;;;;;;5075853;28;20179;-91
2022/09/20 07:28:58;;;;;;;5.95;3.88;;;10.80;99.90;;;;;;5075830;28;20242;-91
2022/09/20 07:31:26;;;;;;;3.60;3.07;;;10.90;99.90;;;;;;5058224;28;20187;-88
2022/09/20 07:33:52;;;;;;;5.40;3.77;;;10.80;99.90;;;;;;5065239;28;20655;-90
2022/09/20 07:36:18;;;;;;;7.75;4.20;;;10.90;99.90;;;;;;5055424;28;20190;-91
2022/09/20 07:38:49;;;;;;;4.50;3.15;;;11.00;99.90;;;;;;5038382;28;20274;-89
2022/09/20 07:41:17;;;;;;;5.67;4.57;;;11.10;99.90;;;;;;5038934;28;20214;-87
2022/09/20 07:43:43;;;;;;;6.32;3.72;;;11.10;99.90;;;;;;5056547;28;20172;-86
2022/09/20 07:46:12;;;;;;;4.50;3.47;;;11.20;99.90;;;;;;5056631;28;20656;-87
2022/09/20 07:48:39;;;;;;;3.85;2.72;;;11.20;99.90;;;;;;5038019;28;20302;-94
2022/09/20 07:51:11;;;;;;;2.90;2.60;;;11.20;99.90;;;;;;5055418;28;20186;-92
2022/09/20 07:53:38;;;;;;;5.32;3.15;;;11.20;99.90;;;;;;5055042;28;20230;-93
2022/09/20 07:56:15;;;;;;;2.97;2.67;;;11.20;99.90;;;;;;5037622;28;20176;-88
2022/09/20 07:58:41;;;;;;;4.28;2.92;;;11.30;99.90;;;;;;5054191;28;20186;-91
2022/09/20 08:01:09;;;;;;;5.20;3.22;;;11.30;99.90;;;;;;5040124;28;20184;-90
2022/09/20 08:03:35;;;;;;;4.85;3.60;;;11.40;99.90;;;;;;5059366;28;20533;-92
2022/09/20 08:06:07;;;;;;;4.05;3.10;;;11.40;99.90;;;;;;5054879;28;20558;-92
2022/09/20 08:08:37;;;;;;;6.47;4.18;;;11.50;99.90;;;;;;5057001;28;20260;-94
2022/09/20 08:11:05;;;;;;;3.15;2.58;;;11.60;99.90;;;;;;5054456;28;20307;-88
2022/09/20 08:13:35;;;;;;;3.55;2.70;;;11.50;99.90;;;;;;5036834;28;20251;-88
2022/09/20 08:16:03;;;;;;;5.22;3.00;;;11.60;99.90;;;;;;5054785;28;20175;-89
2022/09/20 08:18:29;;;;;;;4.65;3.58;;;11.60;99.90;;;;;;5036402;28;20188;-88
2022/09/20 08:20:54;;;;;;;3.08;2.65;;;11.60;99.90;;;;;;5036325;28;20581;-88
2022/09/20 08:23:20;;;;;;;2.83;2.58;;;11.70;99.90;;;;;;5019778;28;20190;-88
2022/09/20 08:25:47;;;;;;;4.35;3.28;;;11.60;99.90;;;;;;5035883;28;20258;-88
2022/09/20 08:28:12;;;;;;;5.15;3.28;;;11.60;99.90;;;;;;5036170;28;20227;-90
2022/09/20 08:30:38;;;;;;;3.80;3.25;;;11.60;99.90;;;;;;5036212;28;20190;-90
2022/09/20 08:33:05;;;;;;;4.03;3.35;;;11.70;99.90;;;;;;5036526;28;20191;-90
2022/09/20 08:35:34;;;;;;;2.47;2.28;;;11.70;99.90;;;;;;5053857;28;20176;-87
2022/09/20 08:38:00;;;;;;;1.75;1.65;;;11.80;99.90;;;;;;5053808;28;20179;-86
2022/09/20 08:40:28;;;;;;;3.45;2.50;;;11.70;99.90;;;;;;5036018;28;20225;-89
2022/09/20 08:42:54;;;;;;;3.35;2.55;;;11.80;99.90;;;;;;5035614;28;20196;-93
2022/09/20 08:45:25;;;;;;;3.78;3.20;;;11.90;99.90;;;;;;5037055;28;20184;-87
2022/09/20 08:47:58;;;;;;;3.78;2.47;;;11.80;99.90;;;;;;5052080;28;20658;-86
2022/09/20 08:50:24;;;;;;;2.15;1.65;;;11.90;99.90;;;;;;5073951;28;20204;-87
2022/09/20 08:52:54;;;;;;;3.05;2.47;;;11.80;99.90;;;;;;5073156;28;20633;-87
2022/09/20 08:55:23;;;;;;;2.15;1.80;;;11.80;99.90;;;;;;5067251;28;20675;-87
2022/09/20 08:57:53;;;;;;;3.28;2.65;;;11.70;99.90;;;;;;5073093;28;20256;-85
2022/09/20 09:00:25;;;;;;;3.08;2.30;;;11.80;99.90;;;;;;5073608;28;20679;-86
2022/09/20 09:02:56;;;;;;;2.72;2.22;;;11.70;99.90;;;;;;5055073;28;20167;-85
2022/09/20 09:05:34;;;;;;;2.47;1.70;;;11.70;99.90;;;;;;5073150;28;20596;-86
2022/09/20 09:08:06;;;;;;;2.55;1.67;;;11.70;99.90;;;;;;5073035;28;20178;-86
2022/09/20 09:10:39;;;;;;;3.83;2.65;;;11.90;99.90;;;;;;5071124;28;20262;-86
2022/09/20 09:13:05;;;;;;;4.68;2.42;;;11.90;99.90;;;;;;5063499;28;20542;-87
2022/09/20 09:15:36;;;;;;;2.50;2.30;;;12.00;99.90;;;;;;5052856;28;20644;-86
2022/09/20 09:18:02;;;;;;;3.13;2.55;;;12.10;99.90;;;;;;5035483;28;20225;-85
2022/09/20 09:20:28;;;;;;;3.80;2.50;;;12.10;99.90;;;;;;5052962;28;20211;-86
2022/09/20 09:23:07;;;;;;;2.45;2.25;;;12.60;99.90;;;;;;5035198;28;20255;-87
2022/09/20 09:25:40;;;;;;;1.65;1.27;;;12.00;99.90;;;;;;5059045;28;20234;-87
2022/09/20 09:28:06;;;;;;;3.92;2.15;;;11.90;99.90;;;;;;5040106;28;20232;-86
2022/09/20 09:30:31;;;;;;;2.70;1.73;;;11.90;99.90;;;;;;5035575;28;20186;-88
2022/09/20 09:33:26;;;;;;;3.13;2.63;;;11.80;99.90;;;;;;5052869;28;20178;-87
2022/09/20 09:35:57;;;;;;;4.80;2.72;;;11.70;99.90;;;;;;5037392;28;20651;-87
2022/09/20 09:38:26;;;;;;;4.10;2.55;;;11.70;99.90;;;;;;5035118;28;20175;-86
2022/09/20 09:41:04;;;;;;;6.13;3.58;;;11.60;99.90;;;;;;5052531;28;20172;-87
2022/09/20 09:43:34;;;;;;;3.38;2.55;;;11.60;99.90;;;;;;5053173;28;20199;-87
2022/09/20 09:46:20;;;;;;;3.15;2.33;;;11.50;99.90;;;;;;5052733;28;20222;-87
2022/09/20 09:48:48;;;;;;;5.07;2.47;;;11.50;99.90;;;;;;5052559;28;20707;-86
2022/09/20 09:51:22;;;;;;;1.95;1.70;;;11.50;99.90;;;;;;5058255;28;20176;-87
2022/09/20 09:53:48;;;;;;;5.75;3.13;;;11.50;99.90;;;;;;5060185;28;20172;-86
2022/09/20 09:56:24;;;;;;;4.93;2.80;;;11.50;99.90;;;;;;5063759;28;20172;-86
2022/09/20 09:59:11;;;;;;;6.18;3.60;;;11.50;99.90;;;;;;5042243;28;20175;-87
2022/09/20 10:01:54;;;;;;;7.38;4.75;;;11.50;99.90;;;;;;5059913;28;20541;-88
2022/09/20 10:05:15;;;;;;;5.18;2.33;;;11.50;99.90;;;;;;5044706;28;20252;-87
2022/09/20 10:07:53;;;;;;;6.00;3.22;;;11.60;99.90;;;;;;5039596;28;20710;-87
2022/09/20 10:10:24;;;;;;;4.63;3.00;;;11.60;99.90;;;;;;5040506;28;20683;-87
2022/09/20 10:13:31;;;;;;;4.25;2.92;;;11.60;99.90;;;;;;5058710;28;20184;-87
2022/09/20 10:16:05;;;;;;;5.47;3.40;;;11.60;99.90;;;;;;5038492;28;20583;-87
2022/09/20 10:18:47;;;;;;;4.50;3.08;;;11.60;99.90;;;;;;5056815;28;20175;-88
2022/09/20 10:21:42;;;;;;;6.53;3.65;;;11.60;99.90;;;;;;5058688;28;20211;-87
2022/09/20 10:24:20;;;;;;;8.60;3.35;;;11.60;99.90;;;;;;5041125;28;20534;-87
2022/09/20 10:27:10;;;;;;;6.40;3.78;;;11.60;99.90;;;;;;5058495;28;20663;-86
2022/09/20 10:29:59;;;;;;;7.53;3.97;;;11.60;99.90;;;;;;5039471;28;20235;-87
2022/09/20 10:32:46;;;;;;;7.28;4.78;;;11.70;99.90;;;;;;5056731;28;20183;-89
2022/09/20 10:35:41;;;;;;;7.78;4.47;;;11.90;99.90;;;;;;5063796;28;20181;-87
2022/09/20 10:38:20;;;;;;;4.53;3.25;;;11.90;99.90;;;;;;5066328;28;20214;-87
2022/09/20 10:44:33;;;;;;;3.65;2.55;;;12.30;99.90;;;;;;5069435;28;20193;-86
2022/09/20 10:47:14;;;;;;;7.72;3.42;;;12.40;99.90;;;;;;5059392;28;20161;-88
2022/09/20 10:50:18;;;;;;;9.25;3.67;;;12.30;99.90;;;;;;5055990;28;20203;-88
2022/09/20 10:52:54;;;;;;;9.82;5.22;;;12.20;99.90;;;;;;5056602;28;20186;-87
2022/09/20 10:55:30;;;;;;;6.30;4.18;;;14.00;99.90;;;;;;5060234;28;20172;-88
2022/09/20 10:58:29;;;;;;;7.25;4.85;;;12.10;99.90;;;;;;5054431;28;20345;-87
2022/09/20 11:01:28;;;;;;;4.53;3.10;;;12.20;99.90;;;;;;5075011;28;20163;-87
2022/09/20 11:04:31;;;;;;;4.80;3.70;;;12.20;99.90;;;;;;5064813;28;20176;-87
2022/09/20 11:07:20;;;;;;;7.10;4.18;;;12.30;99.90;;;;;;5059505;28;20179;-87
2022/09/20 11:09:54;;;;;;;5.03;3.08;;;12.40;99.90;;;;;;5061522;28;20206;-87
2022/09/20 11:12:38;;;;;;;7.25;2.80;;;12.50;99.90;;;;;;5074152;28;20199;-87
2022/09/20 11:15:25;;;;;;;5.53;3.47;;;12.60;99.90;;;;;;5072936;28;20176;-88
2022/09/20 11:18:08;;;;;;;5.68;3.17;;;12.50;99.90;;;;;;5078729;28;20183;-87
2022/09/20 11:20:45;;;;;;;5.10;3.08;;;12.60;99.90;;;;;;5065666;28;20168;-87
2022/09/20 11:23:24;;;;;;;5.20;3.90;;;12.60;99.90;;;;;;5046866;28;20171;-87
2022/09/20 11:25:54;;;;;;;5.43;4.00;;;12.70;99.90;;;;;;5041383;28;20258;-86
2022/09/20 11:28:41;;;;;;;7.47;4.18;;;12.80;99.90;;;;;;5057235;28;20757;-87
2022/09/20 11:31:17;;;;;;;4.65;2.67;;;12.80;99.90;;;;;;5055027;28;20190;-87
2022/09/20 11:33:47;;;;;;;3.35;2.92;;;12.80;99.90;;;;;;5037527;28;20186;-88
2022/09/20 11:36:22;;;;;;;6.05;2.97;;;12.80;99.90;;;;;;5037336;28;20183;-88
2022/09/20 11:38:54;;;;;;;6.70;3.55;;;12.90;99.90;;;;;;5055118;28;20256;-87
2022/09/20 11:41:24;;;;;;;5.65;3.15;;;13.00;99.90;;;;;;5054868;28;20219;-87
2022/09/20 11:43:51;;;;;;;6.25;3.30;;;13.10;99.90;;;;;;5055020;28;20649;-89
2022/09/20 11:46:41;;;;;;;4.65;3.17;;;13.20;99.90;;;;;;5037035;28;20265;-93
2022/09/20 11:49:13;;;;;;;6.18;3.08;;;13.20;99.90;;;;;;5063329;28;20199;-92
2022/09/20 11:52:18;;;;;;;4.97;2.78;;;13.20;99.90;;;;;;5073317;28;20636;-89
2022/09/20 11:55:10;;;;;;;3.40;2.17;;;13.10;99.90;;;;;;5049171;28;20215;-89
2022/09/20 11:57:36;;;;;;;3.72;2.08;;;13.10;99.90;;;;;;5037129;28;20541;-89
2022/09/20 12:00:07;;;;;;;3.38;2.08;;;13.10;99.90;;;;;;5037212;28;20184;-90
2022/09/20 12:02:40;;;;;;;4.45;2.15;;;13.00;99.90;;;;;;5063240;28;20172;-87
2022/09/20 12:05:22;;;;;;;2.55;2.00;;;13.00;99.90;;;;;;5056935;28;20571;-88
2022/09/20 12:07:53;;;;;;;2.60;1.77;;;12.90;99.90;;;;;;5074812;28;20182;-89
2022/09/20 12:10:29;;;;;;;3.13;2.10;;;12.90;99.90;;;;;;5056296;28;20214;-88
2022/09/20 12:13:20;;;;;;;2.05;1.77;;;12.80;99.90;;;;;;5074455;28;20182;-87
2022/09/20 12:16:01;;;;;;;3.97;2.03;;;12.90;99.90;;;;;;5063398;28;20261;-86
2022/09/20 12:18:38;;;;;;;2.38;1.77;;;13.00;99.90;;;;;;5056599;28;20179;-87
2022/09/20 12:21:16;;;;;;;3.42;2.35;;;13.00;99.90;;;;;;5071845;28;20168;-87
2022/09/20 12:23:51;;;;;;;3.88;2.40;;;13.10;99.90;;;;;;5071936;28;20154;-88
2022/09/20 12:26:20;;;;;;;2.08;1.77;;;13.30;99.90;;;;;;5067909;28;20228;-85
2022/09/20 12:28:57;;;;;;;2.22;1.85;;;13.40;99.90;;;;;;5071331;28;20314;-88
2022/09/20 12:31:30;;;;;;;1.67;1.30;;;13.50;99.90;;;;;;5059853;28;20193;-86
2022/09/20 12:34:24;;;;;;;2.33;1.63;;;13.50;99.90;;;;;;5060400;28;20195;-87
2022/09/20 12:36:51;;;;;;;1.20;1.10;;;13.50;99.90;;;;;;5091769;28;20159;-90
2022/09/20 12:39:18;;;;;;;1.73;1.20;;;13.50;99.90;;;;;;5080835;28;20167;-86
2022/09/20 12:41:57;;;;;;;2.42;1.98;;;13.60;99.90;;;;;;5071477;28;20187;-86
2022/09/20 12:44:28;;;;;;;2.20;1.85;;;13.60;99.90;;;;;;5088138;28;20191;-86
2022/09/20 12:47:09;;;;;;;3.55;1.65;;;13.50;99.90;;;;;;5098381;28;20163;-87
2022/09/20 12:52:49;;;;;;;2.70;1.95;;;13.50;99.90;;;;;;5074434;28;20245;-86
2022/09/20 13:00:59;;;;;;;2.47;1.83;;;13.60;99.90;;;;;;5053689;28;20199;-87
2022/09/20 13:03:36;;;;;;;2.28;1.75;;;13.60;99.90;;;;;;5054494;28;20164;-86
2022/09/20 13:06:09;;;;;;;5.53;2.33;;;13.70;99.90;;;;;;5054355;28;20172;-87
2022/09/20 13:09:00;;;;;;;3.90;2.30;;;13.80;99.90;;;;;;5037859;28;20211;-87
2022/09/20 13:11:40;;;;;;;2.40;1.77;;;13.70;99.90;;;;;;5055122;28;20206;-86
2022/09/20 13:14:25;;;;;;;4.15;2.53;;;13.60;99.90;;;;;;5037626;28;20184;-86
2022/09/20 13:17:23;;;;;;;3.78;1.27;;;13.60;99.90;;;;;;5058070;28;20184;-88
2022/09/20 13:19:50;;;;;;;3.65;3.05;;;13.30;99.90;;;;;;5064652;28;20187;-88
2022/09/20 13:22:31;;;;;;;1.88;1.40;;;13.10;99.90;;;;;;5061915;28;20187;-88
2022/09/20 13:25:00;;;;;;;1.60;1.33;;;12.80;99.90;;;;;;5067184;28;20181;-90
2022/09/20 13:27:36;;;;;;;3.53;2.03;;;12.60;99.90;;;;;;5068293;28;20156;-90
2022/09/20 13:30:09;;;;;;;1.67;1.55;;;12.50;99.90;;;;;;5063812;28;20313;-88
2022/09/20 13:32:34;;;;;;;2.15;1.95;;;12.30;99.90;;;;;;5073740;28;20183;-89
2022/09/20 13:35:06;;;;;;;1.95;1.00;;;12.30;99.90;;;;;;5051486;28;20185;-88
2022/09/20 13:37:33;;;;;;;0.68;0.68;;;12.10;99.90;;;;;;5071164;28;20665;-88
2022/09/20 13:39:59;;;;;;;1.20;0.95;;;12.00;99.90;;;;;;5052127;28;20179;-88
2022/09/20 13:42:28;;;;;;;1.17;0.95;;;12.00;99.90;;;;;;5044292;28;20190;-87
2022/09/20 13:44:57;;;;;;;2.22;1.05;;;12.00;99.90;;;;;;5055572;28;20180;-89
2022/09/20 13:47:27;;;;;;;1.42;1.00;;;12.00;99.90;;;;;;5071308;28;20183;-87
2022/09/20 13:50:14;;;;;;;0.88;0.88;;;12.10;99.90;;;;;;5056039;28;20272;-88
2022/09/20 13:52:50;;;;;;;0.90;0.90;;;12.00;99.90;;;;;;5045025;28;20669;-87
2022/09/20 13:55:36;;;;;;;1.00;0.90;;;12.00;99.90;;;;;;5073078;28;20662;-89
2022/09/20 13:58:20;;;;;;;2.50;0.90;;;11.90;99.90;;;;;;5075212;28;20703;-89
2022/09/20 14:00:54;;;;;;;0.40;0.40;;;11.80;99.90;;;;;;5074149;28;20183;-88
2022/09/20 14:03:22;;;;;;;0.95;0.93;;;11.70;99.90;;;;;;5056089;28;20731;-89